Time;durP1;ratioP1;P1;durP2;ratioP2;P2;SDS_P1;SDS_P2;PMS_P1;PMS_P2;Temp;Humidity;BMP_temperature;BMP_pressure;BME280_temperature;BME280_humidity;BME280_pressure;Samples;Min_cycle;Max_cycle;Signal;HPM_P1;HPM_P2
2023/04/16 00:02:17;;;;;;;2.30;1.20;;;12.70;75.00;;;;;;5031122;28;20432;-69
2023/04/16 00:04:42;;;;;;;2.27;1.10;;;10.10;73.30;;;;;;5031990;28;20431;-69
2023/04/16 00:07:08;;;;;;;3.07;1.50;;;10.10;74.00;;;;;;5033073;28;20274;-69
2023/04/16 00:09:34;;;;;;;2.30;1.10;;;10.20;72.10;;;;;;5031550;28;20622;-70
2023/04/16 00:12:00;;;;;;;2.30;1.10;;;10.40;72.70;;;;;;5032469;28;20173;-72
2023/04/16 00:14:25;;;;;;;2.20;1.10;;;10.10;73.70;;;;;;5030284;28;20180;-69
2023/04/16 00:16:51;;;;;;;2.40;1.20;;;10.30;73.50;;;;;;5027675;28;20788;-69
2023/04/16 00:19:16;;;;;;;2.30;1.10;;;10.20;71.20;;;;;;5028525;28;20210;-69
2023/04/16 00:21:42;;;;;;;3.23;1.50;;;10.30;73.20;;;;;;5033354;28;20176;-69
2023/04/16 00:24:08;;;;;;;2.30;1.10;;;10.20;73.20;;;;;;5033295;28;20177;-72
2023/04/16 00:26:33;;;;;;;2.27;1.00;;;10.10;73.50;;;;;;5033475;28;20176;-71
2023/04/16 00:29:00;;;;;;;2.40;1.20;;;10.00;78.20;;;;;;5031490;28;20201;-70
2023/04/16 00:31:31;;;;;;;2.33;1.10;;;10.10;76.30;;;;;;5032623;28;20235;-70
2023/04/16 00:33:57;;;;;;;2.30;1.20;;;10.20;73.70;;;;;;5032960;28;20407;-70
2023/04/16 00:36:23;;;;;;;2.22;1.10;;;10.60;71.20;;;;;;5033127;28;20173;-70
2023/04/16 00:38:49;;;;;;;2.40;1.20;;;10.40;71.50;;;;;;5026170;28;20201;-69
2023/04/16 00:41:15;;;;;;;2.30;1.10;;;10.40;70.10;;;;;;5030844;28;20466;-69
2023/04/16 00:43:41;;;;;;;2.27;1.07;;;10.40;70.40;;;;;;5032609;28;20411;-69
2023/04/16 00:46:07;;;;;;;2.40;1.20;;;10.30;72.00;;;;;;5032368;28;20424;-69
2023/04/16 00:48:37;;;;;;;2.47;1.23;;;10.30;71.90;;;;;;5031872;28;20272;-69
2023/04/16 00:51:06;;;;;;;2.50;1.30;;;10.40;70.80;;;;;;5028537;28;20976;-71
2023/04/16 00:53:33;;;;;;;2.33;1.10;;;10.30;71.20;;;;;;5030455;28;20435;-69
2023/04/16 00:56:03;;;;;;;2.30;1.10;;;10.40;72.80;;;;;;5032716;28;20700;-70
2023/04/16 00:58:29;;;;;;;2.40;1.20;;;10.70;68.80;;;;;;5032588;28;20462;-70
2023/04/16 01:00:55;;;;;;;2.40;1.13;;;10.70;66.70;;;;;;5029240;28;20865;-71
2023/04/16 01:03:21;;;;;;;2.30;1.20;;;10.70;67.20;;;;;;5031687;28;20435;-72
2023/04/16 01:05:48;;;;;;;2.40;1.20;;;10.60;69.50;;;;;;5030155;28;20443;-72
2023/04/16 01:08:20;;;;;;;2.70;1.20;;;10.60;68.20;;;;;;5032449;28;20479;-70
2023/04/16 01:10:46;;;;;;;2.33;1.10;;;10.50;70.20;;;;;;5025693;28;20435;-69
2023/04/16 01:13:12;;;;;;;2.40;1.13;;;10.20;73.40;;;;;;5030765;28;20517;-69
2023/04/16 01:15:37;;;;;;;2.47;1.20;;;10.90;70.70;;;;;;5029454;28;20204;-69
2023/04/16 01:18:16;;;;;;;2.50;1.30;;;10.30;72.60;;;;;;5028998;28;20215;-71
2023/04/16 01:20:42;;;;;;;2.60;1.33;;;10.30;72.30;;;;;;5030947;28;20255;-69
2023/04/16 01:23:07;;;;;;;2.40;1.10;;;10.30;71.00;;;;;;5030725;28;20431;-71
2023/04/16 01:25:33;;;;;;;2.50;1.20;;;10.30;73.00;;;;;;5032279;28;20485;-69
2023/04/16 01:27:58;;;;;;;2.40;1.10;;;10.50;72.50;;;;;;5026751;28;20284;-71
2023/04/16 01:30:25;;;;;;;2.30;1.10;;;10.50;70.80;;;;;;5030951;28;20181;-69
2023/04/16 01:32:50;;;;;;;2.40;1.10;;;10.50;70.10;;;;;;5032212;28;20292;-68
2023/04/16 01:35:17;;;;;;;4.07;2.23;;;10.60;70.10;;;;;;5027353;28;21010;-70
2023/04/16 01:37:43;;;;;;;2.50;1.30;;;10.60;67.50;;;;;;5029244;28;20858;-69
2023/04/16 01:40:09;;;;;;;2.40;1.20;;;10.60;68.90;;;;;;5030518;28;20466;-69
2023/04/16 01:42:34;;;;;;;2.40;1.20;;;10.50;70.20;;;;;;5032325;28;20437;-72
2023/04/16 01:45:00;;;;;;;2.70;1.40;;;10.50;70.10;;;;;;5029822;28;20996;-70
2023/04/16 01:47:26;;;;;;;2.43;1.20;;;10.80;67.50;;;;;;5030951;28;20545;-70
2023/04/16 01:49:51;;;;;;;2.40;1.10;;;10.90;66.20;;;;;;5028828;28;20262;-69
2023/04/16 01:52:17;;;;;;;2.70;1.50;;;10.60;66.90;;;;;;5031320;28;20192;-69
2023/04/16 01:54:43;;;;;;;2.50;1.20;;;10.50;69.70;;;;;;5031364;28;20264;-70
2023/04/16 01:57:08;;;;;;;2.60;1.20;;;10.70;66.60;;;;;;5029528;28;20627;-69
2023/04/16 01:59:34;;;;;;;2.40;1.20;;;10.50;68.80;;;;;;5026133;28;20220;-71
2023/04/16 02:02:09;;;;;;;3.53;1.50;;;10.30;70.60;;;;;;5031896;28;20181;-69
2023/04/16 02:04:38;;;;;;;2.40;1.10;;;10.30;72.00;;;;;;5031582;28;20263;-68
2023/04/16 02:07:04;;;;;;;2.50;1.30;;;10.40;71.20;;;;;;5031843;28;20451;-72
2023/04/16 02:09:30;;;;;;;2.53;1.30;;;10.50;70.80;;;;;;5029704;28;20442;-72
2023/04/16 02:11:56;;;;;;;2.40;1.10;;;10.70;69.90;;;;;;5030141;28;20423;-69
2023/04/16 02:14:24;;;;;;;2.47;1.10;;;10.70;69.70;;;;;;5031338;28;20201;-69
2023/04/16 02:16:50;;;;;;;2.53;1.17;;;10.60;68.60;;;;;;5031787;28;20172;-69
2023/04/16 02:19:16;;;;;;;2.70;1.30;;;10.40;74.00;;;;;;5028467;28;20455;-72
2023/04/16 02:21:41;;;;;;;2.47;1.10;;;10.20;73.40;;;;;;5029829;28;20453;-70
2023/04/16 02:24:07;;;;;;;3.40;1.30;;;10.30;73.60;;;;;;5030590;28;20177;-70
2023/04/16 02:26:32;;;;;;;2.50;1.20;;;10.50;70.10;;;;;;5030838;28;20177;-70
2023/04/16 02:28:58;;;;;;;2.57;1.20;;;10.10;75.70;;;;;;5030394;28;20227;-69
2023/04/16 02:31:24;;;;;;;2.50;1.10;;;10.20;75.80;;;;;;5029814;28;20177;-69
2023/04/16 02:33:49;;;;;;;2.50;1.17;;;10.50;73.40;;;;;;5035309;28;20230;-70
2023/04/16 02:36:15;;;;;;;4.00;1.70;;;10.60;71.90;;;;;;5034258;28;20188;-70
2023/04/16 02:38:41;;;;;;;2.50;1.10;;;10.70;69.90;;;;;;5019622;28;20722;-69
2023/04/16 02:41:06;;;;;;;2.50;1.10;;;10.60;69.70;;;;;;5032465;28;20204;-70
2023/04/16 02:43:32;;;;;;;2.50;1.20;;;10.30;72.80;;;;;;5035366;28;20187;-69
2023/04/16 02:45:58;;;;;;;2.50;1.20;;;10.20;73.80;;;;;;5034273;28;20555;-70
2023/04/16 02:48:23;;;;;;;2.50;1.10;;;10.60;70.90;;;;;;5035162;28;20197;-70
2023/04/16 02:50:49;;;;;;;2.40;1.00;;;10.50;70.90;;;;;;5032622;28;20442;-73
2023/04/16 02:53:15;;;;;;;2.50;1.10;;;10.70;71.00;;;;;;5033681;28;20176;-69
2023/04/16 02:55:41;;;;;;;2.50;1.10;;;10.40;73.00;;;;;;5025990;28;20537;-70
2023/04/16 02:58:06;;;;;;;2.50;1.10;;;10.50;72.00;;;;;;5034923;28;20228;-69
2023/04/16 03:00:32;;;;;;;2.50;1.10;;;10.70;69.60;;;;;;5031578;28;20208;-70
2023/04/16 03:02:57;;;;;;;2.60;1.20;;;10.60;69.10;;;;;;5034500;28;20713;-69
2023/04/16 03:05:23;;;;;;;2.60;1.20;;;10.80;70.40;;;;;;5034748;28;20184;-70
2023/04/16 03:07:49;;;;;;;2.50;1.10;;;11.00;66.60;;;;;;5034156;28;20256;-69
2023/04/16 03:10:15;;;;;;;2.70;1.23;;;10.30;71.20;;;;;;5034712;28;20177;-69
2023/04/16 03:12:41;;;;;;;2.70;1.30;;;10.40;73.10;;;;;;5031708;28;20493;-69
2023/04/16 03:15:07;;;;;;;2.70;1.20;;;10.60;72.10;;;;;;5032825;28;20789;-69
2023/04/16 03:17:32;;;;;;;2.57;1.10;;;10.10;75.60;;;;;;5029713;28;20274;-70
2023/04/16 03:19:58;;;;;;;2.60;1.10;;;10.50;72.90;;;;;;5034459;28;21008;-72
2023/04/16 03:22:24;;;;;;;2.60;1.20;;;10.40;71.70;;;;;;5030206;28;20201;-69
2023/04/16 03:24:49;;;;;;;2.70;1.20;;;10.40;73.20;;;;;;5034310;28;20180;-69
2023/04/16 03:27:15;;;;;;;2.60;1.20;;;10.50;72.40;;;;;;5034638;28;20172;-70
2023/04/16 03:29:40;;;;;;;2.60;1.10;;;10.30;74.10;;;;;;5034622;28;20200;-69
2023/04/16 03:32:06;;;;;;;2.57;1.10;;;9.90;79.20;;;;;;5033948;28;20582;-70
2023/04/16 03:34:32;;;;;;;2.70;1.20;;;10.20;76.40;;;;;;5032670;28;20192;-69
2023/04/16 03:36:57;;;;;;;2.67;1.20;;;10.60;72.70;;;;;;5030887;28;20184;-69
2023/04/16 03:39:23;;;;;;;2.60;1.10;;;10.40;71.90;;;;;;5033772;28;20562;-69
2023/04/16 03:41:48;;;;;;;2.60;1.10;;;10.10;77.10;;;;;;5034302;28;20181;-72
2023/04/16 03:44:14;;;;;;;2.60;1.00;;;9.70;82.60;;;;;;5031306;28;20183;-69
2023/04/16 03:46:40;;;;;;;2.90;1.30;;;9.60;86.40;;;;;;5034113;28;20451;-69
2023/04/16 03:49:05;;;;;;;2.80;1.20;;;9.90;82.80;;;;;;5033526;28;20189;-69
2023/04/16 03:51:31;;;;;;;3.23;1.40;;;9.80;80.90;;;;;;5033968;28;20640;-70
2023/04/16 03:53:56;;;;;;;2.70;1.20;;;10.10;79.70;;;;;;5031487;28;20238;-69
2023/04/16 03:56:22;;;;;;;2.70;1.10;;;10.40;75.20;;;;;;5034053;28;20268;-69
2023/04/16 03:58:47;;;;;;;2.70;1.20;;;10.50;75.00;;;;;;5033863;28;20212;-69
2023/04/16 04:01:13;;;;;;;2.70;1.10;;;10.70;71.50;;;;;;5033818;28;20212;-69
2023/04/16 04:03:39;;;;;;;2.67;1.10;;;11.20;67.30;;;;;;5032192;28;20187;-69
2023/04/16 04:06:08;;;;;;;2.70;1.20;;;11.00;66.50;;;;;;5031702;28;20188;-69
2023/04/16 04:08:33;;;;;;;2.80;1.30;;;10.70;70.60;;;;;;5032559;28;20193;-70
2023/04/16 04:10:59;;;;;;;2.70;1.20;;;10.70;70.20;;;;;;5033790;28;20830;-69
2023/04/16 04:13:24;;;;;;;3.00;1.50;;;10.70;70.10;;;;;;5033523;28;20183;-69
2023/04/16 04:15:50;;;;;;;2.80;1.20;;;10.40;71.40;;;;;;5030711;28;20191;-69
2023/04/16 04:18:16;;;;;;;2.97;1.30;;;10.20;74.70;;;;;;5033546;28;20564;-70
2023/04/16 04:20:41;;;;;;;2.67;1.10;;;10.30;74.10;;;;;;5033402;28;20679;-73
2023/04/16 04:23:07;;;;;;;2.70;1.10;;;10.10;74.60;;;;;;5032431;28;20260;-69
2023/04/16 04:25:32;;;;;;;2.73;1.20;;;10.30;74.50;;;;;;5030407;28;20272;-69
2023/04/16 04:27:58;;;;;;;2.70;1.13;;;10.30;73.10;;;;;;5033246;28;20524;-70
2023/04/16 04:30:24;;;;;;;2.93;1.30;;;10.30;73.60;;;;;;5032755;28;20177;-71
2023/04/16 04:32:49;;;;;;;2.80;1.30;;;10.10;76.10;;;;;;5032946;28;20177;-68
2023/04/16 04:35:15;;;;;;;2.80;1.20;;;10.30;74.90;;;;;;5031968;28;20180;-70
2023/04/16 04:37:41;;;;;;;2.70;1.00;;;9.90;79.80;;;;;;5031733;28;20211;-69
2023/04/16 04:40:07;;;;;;;2.70;1.20;;;10.30;75.10;;;;;;5032043;28;20705;-70
2023/04/16 04:42:32;;;;;;;2.77;1.17;;;10.60;73.40;;;;;;5032833;28;20176;-70
2023/04/16 04:44:58;;;;;;;2.70;1.20;;;10.60;67.30;;;;;;5032535;28;20427;-72
2023/04/16 04:47:23;;;;;;;2.80;1.20;;;10.60;70.50;;;;;;5029829;28;20176;-69
2023/04/16 04:49:49;;;;;;;2.80;1.20;;;10.40;70.90;;;;;;5032996;28;20227;-69
2023/04/16 04:52:15;;;;;;;2.80;1.20;;;10.10;75.50;;;;;;5032387;28;20574;-71
2023/04/16 04:54:40;;;;;;;2.83;1.20;;;10.20;75.20;;;;;;5031533;28;20182;-70
2023/04/16 04:57:07;;;;;;;2.80;1.20;;;10.10;73.90;;;;;;5030517;28;20574;-69
2023/04/16 04:59:32;;;;;;;4.13;1.40;;;10.10;76.30;;;;;;5031780;28;20223;-72
2023/04/16 05:01:58;;;;;;;2.80;1.10;;;10.10;76.30;;;;;;5029733;28;20772;-69
2023/04/16 05:04:24;;;;;;;3.00;1.40;;;10.00;76.20;;;;;;5032276;28;20184;-70
2023/04/16 05:06:50;;;;;;;2.70;1.10;;;10.50;73.30;;;;;;5032609;28;20415;-70
2023/04/16 05:09:16;;;;;;;2.83;1.20;;;10.40;70.80;;;;;;5032994;28;20192;-69
2023/04/16 05:11:41;;;;;;;2.70;1.17;;;10.00;74.60;;;;;;5030224;28;20184;-69
2023/04/16 05:14:07;;;;;;;2.90;1.27;;;10.20;71.80;;;;;;5030803;28;21044;-70
2023/04/16 05:16:36;;;;;;;2.80;1.10;;;10.00;73.10;;;;;;5031531;28;20589;-72
2023/04/16 05:19:02;;;;;;;2.80;1.20;;;10.30;72.50;;;;;;5032363;28;20210;-69
2023/04/16 05:21:28;;;;;;;2.80;1.10;;;10.50;72.50;;;;;;5032258;28;20545;-69
2023/04/16 05:23:54;;;;;;;2.70;1.10;;;10.60;69.50;;;;;;5030106;28;20442;-69
2023/04/16 05:26:20;;;;;;;2.73;1.20;;;10.50;71.10;;;;;;5032801;28;20182;-70
2023/04/16 05:28:45;;;;;;;2.80;1.10;;;10.30;72.40;;;;;;5032247;28;20193;-71
2023/04/16 05:31:11;;;;;;;2.80;1.13;;;10.40;72.50;;;;;;5032285;28;20413;-72
2023/04/16 05:33:37;;;;;;;2.80;1.10;;;10.10;73.90;;;;;;5028226;28;20551;-70
2023/04/16 05:36:04;;;;;;;2.83;1.17;;;10.20;73.10;;;;;;5031804;28;20188;-69
2023/04/16 05:38:29;;;;;;;2.80;1.10;;;9.90;77.10;;;;;;5032197;28;20201;-72
2023/04/16 05:40:55;;;;;;;2.80;1.10;;;10.00;76.90;;;;;;5031391;28;20882;-69
2023/04/16 05:43:20;;;;;;;2.90;1.30;;;10.10;76.50;;;;;;5030981;28;20208;-70
2023/04/16 05:45:46;;;;;;;2.80;1.20;;;10.40;74.20;;;;;;5030144;28;20179;-69
2023/04/16 05:48:12;;;;;;;2.73;1.10;;;10.10;76.00;;;;;;5031918;28;20687;-71
2023/04/16 05:50:38;;;;;;;2.80;1.17;;;10.30;74.80;;;;;;5030761;28;20628;-69
2023/04/16 05:53:06;;;;;;;2.90;1.30;;;10.80;68.80;;;;;;5030278;28;20443;-70
2023/04/16 05:55:32;;;;;;;3.67;1.70;;;10.70;69.30;;;;;;5030122;28;20649;-73
2023/04/16 05:57:58;;;;;;;2.70;1.20;;;10.60;70.20;;;;;;5044575;23;20420;-74
2023/04/16 06:00:23;;;;;;;2.70;1.10;;;10.70;73.20;;;;;;5026708;28;20475;-65
2023/04/16 06:02:49;;;;;;;2.73;1.10;;;10.70;71.70;;;;;;5030506;28;20546;-65
2023/04/16 06:05:15;;;;;;;2.80;1.20;;;10.50;71.00;;;;;;5030310;28;20175;-65
2023/04/16 06:07:41;;;;;;;2.80;1.20;;;10.60;72.20;;;;;;5026319;28;20459;-65
2023/04/16 06:10:07;;;;;;;2.70;1.10;;;11.00;68.60;;;;;;5031712;28;20439;-65
2023/04/16 06:12:32;;;;;;;2.80;1.20;;;10.50;70.40;;;;;;5031737;28;20579;-66
2023/04/16 06:14:59;;;;;;;2.90;1.30;;;10.80;68.70;;;;;;5031588;28;20411;-68
2023/04/16 06:17:25;;;;;;;2.70;1.13;;;10.40;72.00;;;;;;5030123;28;20602;-68
2023/04/16 06:19:51;;;;;;;2.70;1.10;;;10.50;72.90;;;;;;5031462;28;20536;-68
2023/04/16 06:22:17;;;;;;;2.80;1.20;;;10.70;69.70;;;;;;5031582;28;20902;-67
2023/04/16 06:24:42;;;;;;;2.70;1.10;;;10.50;72.20;;;;;;5026580;28;20176;-68
2023/04/16 06:27:08;;;;;;;2.70;1.10;;;10.70;70.80;;;;;;5029484;28;20172;-68
2023/04/16 06:29:34;;;;;;;2.70;1.10;;;10.70;70.70;;;;;;5031588;28;20569;-68
2023/04/16 06:32:00;;;;;;;2.77;1.17;;;10.70;70.00;;;;;;5029525;28;20549;-68
2023/04/16 06:34:26;;;;;;;3.10;1.50;;;10.80;70.80;;;;;;5030959;28;20169;-66
2023/04/16 06:36:52;;;;;;;2.73;1.13;;;10.70;69.20;;;;;;5028580;28;20181;-68
2023/04/16 06:39:20;;;;;;;2.87;1.27;;;10.50;73.40;;;;;;5030899;28;20451;-68
2023/04/16 06:41:49;;;;;;;2.80;1.20;;;10.90;69.60;;;;;;5030884;28;20199;-69
2023/04/16 06:44:15;;;;;;;2.90;1.30;;;10.90;68.80;;;;;;5031304;28;20414;-69
2023/04/16 06:46:40;;;;;;;2.70;1.10;;;10.80;70.00;;;;;;5031810;28;20404;-68
2023/04/16 06:49:06;;;;;;;3.30;1.40;;;10.60;70.20;;;;;;5029687;28;20200;-67
2023/04/16 06:51:32;;;;;;;3.10;1.50;;;10.60;73.00;;;;;;5031354;28;20228;-69
2023/04/16 06:53:57;;;;;;;2.70;1.10;;;10.60;71.30;;;;;;5031304;28;20674;-68
2023/04/16 06:56:23;;;;;;;3.20;1.47;;;10.40;73.10;;;;;;5045942;28;20489;-68
2023/04/16 06:58:49;;;;;;;2.90;1.13;;;10.40;73.40;;;;;;5029967;28;20629;-68
2023/04/16 07:01:16;;;;;;;3.33;1.52;;;10.30;76.90;;;;;;5046563;28;20216;-68
2023/04/16 07:03:42;;;;;;;3.00;1.10;;;10.40;75.20;;;;;;5028756;28;20176;-66
2023/04/16 07:06:07;;;;;;;2.93;1.17;;;10.50;73.60;;;;;;5029102;28;20804;-67
2023/04/16 07:08:33;;;;;;;2.90;1.10;;;10.90;71.80;;;;;;5031391;28;20220;-68
2023/04/16 07:10:58;;;;;;;3.00;1.30;;;11.10;68.40;;;;;;5021445;28;20595;-68
2023/04/16 07:13:24;;;;;;;2.90;1.10;;;10.80;70.20;;;;;;5028477;28;20194;-67
2023/04/16 07:15:50;;;;;;;2.90;1.10;;;10.80;70.40;;;;;;5030968;28;20632;-69
2023/04/16 07:18:16;;;;;;;2.90;1.10;;;10.90;70.20;;;;;;5033137;28;20462;-74
2023/04/16 07:20:41;;;;;;;3.10;1.30;;;10.40;72.70;;;;;;5032370;28;20288;-74
2023/04/16 07:23:07;;;;;;;3.20;1.30;;;10.40;74.70;;;;;;5034515;28;20185;-73
2023/04/16 07:25:32;;;;;;;3.10;1.30;;;10.30;75.00;;;;;;5034218;28;20181;-74
2023/04/16 07:27:58;;;;;;;3.00;1.20;;;9.80;80.90;;;;;;5034537;28;20176;-74
2023/04/16 07:30:24;;;;;;;3.10;1.33;;;9.80;80.80;;;;;;5033671;28;20183;-72
2023/04/16 07:32:50;;;;;;;3.20;1.30;;;9.90;80.70;;;;;;5031845;28;20211;-68
2023/04/16 07:35:16;;;;;;;3.00;1.10;;;10.20;76.30;;;;;;5033373;28;20427;-68
2023/04/16 07:37:41;;;;;;;3.50;1.50;;;10.40;76.00;;;;;;5034699;28;20439;-68
2023/04/16 07:40:08;;;;;;;3.80;1.50;;;10.60;72.30;;;;;;5034367;28;20208;-68
2023/04/16 07:42:34;;;;;;;3.20;1.43;;;10.70;73.40;;;;;;5043452;28;20186;-73
2023/04/16 07:45:00;;;;;;;3.10;1.30;;;11.00;71.20;;;;;;5034087;28;20429;-68
2023/04/16 07:47:26;;;;;;;3.20;1.30;;;11.20;66.90;;;;;;5034253;28;20411;-68
2023/04/16 07:49:52;;;;;;;3.20;1.30;;;11.00;66.70;;;;;;5034102;28;20207;-68
2023/04/16 07:52:18;;;;;;;3.20;1.33;;;10.80;69.40;;;;;;5030704;28;20436;-68
2023/04/16 07:54:44;;;;;;;3.10;1.20;;;10.60;73.70;;;;;;5033984;28;20461;-68
2023/04/16 07:57:11;;;;;;;3.30;1.40;;;10.50;73.00;;;;;;5027138;28;20436;-68
2023/04/16 07:59:36;;;;;;;3.20;1.30;;;10.60;74.00;;;;;;5031642;28;20227;-69
2023/04/16 08:02:03;;;;;;;3.20;1.27;;;10.60;73.50;;;;;;5024941;28;20445;-68
2023/04/16 08:04:28;;;;;;;3.20;1.30;;;10.60;72.20;;;;;;5031094;28;20177;-67
2023/04/16 08:06:54;;;;;;;3.10;1.10;;;10.80;71.00;;;;;;5033324;28;20457;-70
2023/04/16 08:09:21;;;;;;;3.20;1.10;;;10.50;72.40;;;;;;5033920;28;20199;-67
2023/04/16 08:11:48;;;;;;;3.40;1.30;;;10.50;72.10;;;;;;5028831;28;20184;-67
2023/04/16 08:14:15;;;;;;;3.10;1.10;;;10.60;73.30;;;;;;5031817;28;20430;-67
2023/04/16 08:16:41;;;;;;;3.20;1.10;;;10.70;72.00;;;;;;5020737;28;20523;-70
2023/04/16 08:19:06;;;;;;;3.20;1.30;;;10.70;70.00;;;;;;5033341;28;20527;-67
2023/04/16 08:21:32;;;;;;;3.20;1.20;;;10.70;72.00;;;;;;5033639;28;20204;-68
2023/04/16 08:23:58;;;;;;;3.40;1.30;;;10.40;75.30;;;;;;5030501;28;20169;-67
2023/04/16 08:26:24;;;;;;;3.30;1.20;;;11.40;73.70;;;;;;5028274;28;20486;-67
2023/04/16 08:28:49;;;;;;;3.33;1.20;;;11.00;69.20;;;;;;5031389;28;20599;-67
2023/04/16 08:31:15;;;;;;;3.83;1.60;;;10.60;73.80;;;;;;5031088;28;20208;-67
2023/04/16 08:33:41;;;;;;;3.30;1.10;;;10.30;74.20;;;;;;5025448;28;20183;-67
2023/04/16 08:36:07;;;;;;;3.90;1.53;;;10.40;73.20;;;;;;5030449;28;20181;-67
2023/04/16 08:38:32;;;;;;;3.50;1.37;;;10.60;75.30;;;;;;5032483;28;20276;-66
2023/04/16 08:41:02;;;;;;;3.60;1.33;;;10.60;71.90;;;;;;5033182;28;20541;-67
2023/04/16 08:43:32;;;;;;;3.40;1.10;;;10.60;73.10;;;;;;5032341;28;20518;-67
2023/04/16 08:45:58;;;;;;;3.53;1.27;;;10.50;70.40;;;;;;5028495;28;20435;-67
2023/04/16 08:48:24;;;;;;;3.60;1.30;;;10.50;71.80;;;;;;5030535;28;20949;-67
2023/04/16 08:50:51;;;;;;;4.00;1.40;;;10.60;70.40;;;;;;5032249;28;20432;-67
2023/04/16 08:53:19;;;;;;;3.40;1.10;;;10.70;71.80;;;;;;5033083;28;20423;-68
2023/04/16 08:55:49;;;;;;;3.80;1.47;;;10.70;72.10;;;;;;5030561;28;20797;-68
2023/04/16 08:58:18;;;;;;;3.70;1.53;;;10.90;69.20;;;;;;5023987;28;20514;-67
2023/04/16 09:00:45;;;;;;;3.70;1.30;;;10.50;72.70;;;;;;5029070;28;20451;-66
2023/04/16 09:03:11;;;;;;;3.60;1.30;;;10.10;75.50;;;;;;5029676;28;20919;-69
2023/04/16 09:05:37;;;;;;;3.53;1.30;;;10.30;77.90;;;;;;5023972;28;20887;-67
2023/04/16 09:08:06;;;;;;;3.70;1.40;;;10.60;73.70;;;;;;5027039;28;20442;-67
2023/04/16 09:10:32;;;;;;;3.77;1.33;;;10.50;73.60;;;;;;5026473;28;20434;-67
2023/04/16 09:12:58;;;;;;;3.67;1.20;;;11.00;70.20;;;;;;5028361;28;20436;-67
2023/04/16 09:15:27;;;;;;;3.90;1.20;;;10.70;71.40;;;;;;5046525;28;21016;-67
2023/04/16 09:17:53;;;;;;;7.50;1.57;;;10.50;72.30;;;;;;5025422;28;20182;-66
2023/04/16 09:20:19;;;;;;;4.67;1.97;;;10.50;75.10;;;;;;5028050;28;21015;-67
2023/04/16 09:22:45;;;;;;;4.00;1.37;;;10.50;72.50;;;;;;5028462;28;20419;-67
2023/04/16 09:25:11;;;;;;;3.80;1.30;;;10.70;72.20;;;;;;5026544;28;20442;-67
2023/04/16 09:27:38;;;;;;;3.90;1.23;;;10.80;72.10;;;;;;5022714;28;20227;-67
2023/04/16 09:30:20;;;;;;;3.97;1.40;;;10.90;69.60;;;;;;5027185;28;20443;-70
2023/04/16 09:32:47;;;;;;;3.90;1.30;;;10.80;70.00;;;;;;5025623;28;20423;-71
2023/04/16 09:35:13;;;;;;;4.10;1.40;;;11.00;70.30;;;;;;5029877;28;20523;-70
2023/04/16 09:37:39;;;;;;;4.73;1.50;;;11.10;68.00;;;;;;5022523;28;21115;-72
2023/04/16 09:40:06;;;;;;;4.67;1.80;;;10.90;68.30;;;;;;5029035;28;20513;-72
2023/04/16 09:42:35;;;;;;;4.00;1.20;;;11.10;72.70;;;;;;5029672;28;20176;-72
2023/04/16 09:45:02;;;;;;;4.10;1.37;;;11.30;66.10;;;;;;5024789;28;20466;-72
2023/04/16 09:47:43;;;;;;;4.10;1.30;;;11.20;67.30;;;;;;5023250;28;20432;-69
2023/04/16 09:50:16;;;;;;;4.07;1.20;;;11.40;65.70;;;;;;5018921;28;20984;-68
2023/04/16 09:52:44;;;;;;;4.40;1.60;;;11.20;69.10;;;;;;5044558;28;20431;-71
2023/04/16 09:55:10;;;;;;;4.00;1.27;;;10.90;70.10;;;;;;5046355;28;20431;-69
2023/04/16 09:57:37;;;;;;;4.83;1.50;;;11.50;64.00;;;;;;5026094;28;20450;-68
2023/04/16 10:00:08;;;;;;;4.07;1.27;;;11.50;65.30;;;;;;5027821;28;20219;-72
2023/04/16 10:02:37;;;;;;;4.10;1.30;;;11.00;67.20;;;;;;5029393;28;20481;-72
2023/04/16 10:05:03;;;;;;;4.00;1.20;;;10.80;70.90;;;;;;5023093;28;20794;-71
2023/04/16 10:07:33;;;;;;;4.10;1.30;;;10.70;71.50;;;;;;5023663;28;21169;-73
2023/04/16 10:09:59;;;;;;;4.47;1.57;;;11.20;70.90;;;;;;5023108;28;20509;-72
2023/04/16 10:12:26;;;;;;;4.70;1.67;;;11.20;66.20;;;;;;5029699;28;20430;-70
2023/04/16 10:14:51;;;;;;;4.10;1.10;;;11.00;70.70;;;;;;5028220;28;20462;-74
2023/04/16 10:17:18;;;;;;;4.30;1.30;;;11.60;67.10;;;;;;5028473;28;20485;-72
2023/04/16 10:19:44;;;;;;;4.50;1.40;;;11.50;68.50;;;;;;5029569;28;20196;-71
2023/04/16 10:22:10;;;;;;;4.20;1.20;;;11.10;69.40;;;;;;5030086;28;20426;-71
2023/04/16 10:24:36;;;;;;;4.30;1.30;;;11.00;70.60;;;;;;5030348;28;20489;-69
2023/04/16 10:27:01;;;;;;;4.23;1.30;;;11.20;68.50;;;;;;5024491;28;20173;-72
2023/04/16 10:29:30;;;;;;;4.30;1.40;;;11.10;69.30;;;;;;5026034;28;20200;-70
2023/04/16 10:31:56;;;;;;;4.20;1.30;;;11.10;70.10;;;;;;5030714;28;20164;-72
2023/04/16 10:34:23;;;;;;;4.17;1.20;;;11.30;66.40;;;;;;5031507;28;20457;-72
2023/04/16 10:36:52;;;;;;;4.20;1.10;;;11.20;68.40;;;;;;5031368;28;20424;-71
2023/04/16 10:39:23;;;;;;;4.33;1.33;;;11.10;66.40;;;;;;5029288;28;20509;-74
2023/04/16 10:42:05;;;;;;;4.40;1.40;;;11.30;68.10;;;;;;5025760;28;20852;-70
2023/04/16 10:44:31;;;;;;;5.00;1.30;;;11.40;66.30;;;;;;5026848;28;20982;-71
2023/04/16 10:46:58;;;;;;;4.70;1.60;;;11.80;66.10;;;;;;5028018;28;20793;-71
2023/04/16 10:49:25;;;;;;;5.77;2.03;;;11.10;65.30;;;;;;5029226;28;20451;-69
2023/04/16 10:51:56;;;;;;;4.20;1.23;;;10.90;68.90;;;;;;5028225;28;20442;-70
2023/04/16 10:54:29;;;;;;;4.40;1.40;;;10.90;69.90;;;;;;5033128;28;20416;-70
2023/04/16 10:56:57;;;;;;;4.20;1.30;;;10.60;70.80;;;;;;5030592;28;20420;-70
2023/04/16 10:59:23;;;;;;;4.10;1.20;;;10.70;72.20;;;;;;5033935;28;20462;-70
2023/04/16 11:01:55;;;;;;;4.17;1.20;;;11.00;69.00;;;;;;5032922;28;20562;-69
2023/04/16 11:04:20;;;;;;;4.23;1.40;;;10.70;69.70;;;;;;5033107;28;20442;-69
2023/04/16 11:07:13;;;;;;;4.20;1.30;;;10.80;69.60;;;;;;5032800;28;20788;-69
2023/04/16 11:10:01;;;;;;;4.30;1.30;;;10.90;70.30;;;;;;5034625;28;20193;-70
2023/04/16 11:12:45;;;;;;;4.10;1.13;;;11.00;69.80;;;;;;5031641;28;20454;-69
2023/04/16 11:15:12;;;;;;;4.10;1.30;;;11.20;66.00;;;;;;5028942;28;20849;-70
2023/04/16 11:17:46;;;;;;;4.20;1.40;;;11.30;68.60;;;;;;5032312;28;20436;-72
2023/04/16 11:20:17;;;;;;;4.43;1.50;;;11.10;68.00;;;;;;5033441;28;20540;-70
2023/04/16 11:22:46;;;;;;;4.20;1.40;;;10.70;70.80;;;;;;5014482;28;20789;-70
2023/04/16 11:25:12;;;;;;;4.00;1.20;;;10.80;68.80;;;;;;5029480;28;20446;-70
2023/04/16 11:27:37;;;;;;;4.33;1.60;;;11.20;68.00;;;;;;5033342;28;20597;-70
2023/04/16 11:30:05;;;;;;;4.00;1.30;;;11.20;65.80;;;;;;5047813;28;20205;-71
2023/04/16 11:32:34;;;;;;;5.13;1.83;;;11.40;64.00;;;;;;5032338;28;20542;-71
2023/04/16 11:35:03;;;;;;;4.10;1.30;;;11.10;68.90;;;;;;5025709;28;20521;-70
2023/04/16 11:37:33;;;;;;;4.30;1.70;;;11.50;66.00;;;;;;5030563;28;20435;-70
2023/04/16 11:39:59;;;;;;;4.43;1.37;;;11.50;66.20;;;;;;5034105;28;20508;-69
2023/04/16 11:42:27;;;;;;;4.20;1.30;;;11.60;64.30;;;;;;5028400;28;20435;-69
2023/04/16 11:44:57;;;;;;;4.10;1.30;;;11.30;66.30;;;;;;5027848;28;20926;-70
2023/04/16 11:47:23;;;;;;;4.67;1.63;;;11.40;67.20;;;;;;5031623;28;20441;-70
2023/04/16 11:49:50;;;;;;;4.00;1.20;;;10.90;66.40;;;;;;5022497;28;21024;-70
2023/04/16 11:52:26;;;;;;;4.47;1.40;;;10.80;70.50;;;;;;5033431;28;20407;-70
2023/04/16 11:54:52;;;;;;;4.20;1.43;;;11.20;67.50;;;;;;5033243;28;20403;-69
2023/04/16 11:57:28;;;;;;;4.40;1.40;;;12.30;68.50;;;;;;5030858;28;20791;-70
2023/04/16 11:59:55;;;;;;;4.00;1.50;;;10.90;69.20;;;;;;5072027;22;21012;-72
2023/04/16 12:02:57;;;;;;;4.00;1.20;;;11.10;68.30;;;;;;5030450;28;20940;-73
2023/04/16 12:05:29;;;;;;;3.90;1.10;;;11.50;65.40;;;;;;5028332;28;20436;-71
2023/04/16 12:07:57;;;;;;;4.00;1.20;;;11.00;66.30;;;;;;5036416;28;20411;-72
2023/04/16 12:10:23;;;;;;;4.33;1.40;;;11.10;66.60;;;;;;5039219;28;20537;-71
2023/04/16 12:12:48;;;;;;;4.60;1.87;;;11.20;66.20;;;;;;5047664;28;20439;-72
2023/04/16 12:15:14;;;;;;;4.20;1.33;;;11.50;66.40;;;;;;5049375;28;20785;-70
2023/04/16 12:17:40;;;;;;;4.20;1.30;;;11.70;61.80;;;;;;5030027;28;20194;-74
2023/04/16 12:20:14;;;;;;;4.13;1.30;;;11.50;62.80;;;;;;5032331;28;20197;-73
2023/04/16 12:22:47;;;;;;;4.20;1.40;;;11.60;63.00;;;;;;5030652;28;20486;-73
2023/04/16 12:25:14;;;;;;;4.00;1.10;;;11.30;64.90;;;;;;5032511;28;20826;-73
2023/04/16 12:27:51;;;;;;;4.10;1.20;;;11.20;67.40;;;;;;5030701;28;20434;-72
2023/04/16 12:30:18;;;;;;;3.97;1.10;;;11.30;64.80;;;;;;5033047;28;21064;-71
2023/04/16 12:32:46;;;;;;;4.30;1.50;;;11.30;67.20;;;;;;5032403;28;20434;-73
2023/04/16 12:35:13;;;;;;;4.40;1.50;;;11.70;66.40;;;;;;5034166;28;20414;-72
2023/04/16 12:37:39;;;;;;;4.00;1.20;;;11.90;63.80;;;;;;5032705;28;20516;-72
2023/04/16 12:40:06;;;;;;;4.00;1.20;;;11.80;63.30;;;;;;5030458;28;20973;-72
2023/04/16 12:42:35;;;;;;;4.07;1.33;;;11.70;64.70;;;;;;5033016;28;20502;-71
2023/04/16 12:45:05;;;;;;;4.00;1.23;;;12.20;65.90;;;;;;5033243;28;20409;-69
2023/04/16 12:47:31;;;;;;;3.90;1.20;;;11.30;66.20;;;;;;5030050;28;20464;-71